createdAt,value
2023-04-18T00:00:06.874Z,21.73
2023-04-18T00:02:36.502Z,18.00
2023-04-18T00:05:05.440Z,18.95
2023-04-18T00:07:32.564Z,18.30
2023-04-18T00:09:59.657Z,17.75
2023-04-18T00:12:26.831Z,17.73
2023-04-18T00:14:53.919Z,19.13
2023-04-18T00:17:21.199Z,21.10
2023-04-18T00:19:48.253Z,17.55
2023-04-18T00:22:16.822Z,17.00
2023-04-18T00:24:43.897Z,17.20
2023-04-18T00:27:11.094Z,17.55
2023-04-18T00:29:38.031Z,15.52
2023-04-18T00:32:04.809Z,14.40
2023-04-18T00:34:31.473Z,16.08
2023-04-18T00:36:58.120Z,15.80
2023-04-18T00:39:26.014Z,16.77
2023-04-18T00:41:53.962Z,14.33
2023-04-18T00:44:20.714Z,13.55
2023-04-18T00:46:47.463Z,13.05
2023-04-18T00:49:14.190Z,13.30
2023-04-18T00:51:41.274Z,12.98
2023-04-18T00:54:08.649Z,12.82
2023-04-18T00:56:36.169Z,13.07
2023-04-18T00:59:03.808Z,15.23
2023-04-18T01:01:30.870Z,13.20
2023-04-18T01:03:57.645Z,12.93
2023-04-18T01:06:25.290Z,11.15
2023-04-18T01:08:51.998Z,11.73
2023-04-18T01:11:19.260Z,12.30
2023-04-18T01:14:02.069Z,11.52
2023-04-18T01:16:30.044Z,11.18
2023-04-18T01:18:57.186Z,12.98
2023-04-18T01:21:24.274Z,11.45
2023-04-18T01:23:53.600Z,10.77
2023-04-18T01:26:20.859Z,11.57
2023-04-18T01:28:47.656Z,9.70
2023-04-18T01:31:14.321Z,11.18
2023-04-18T01:33:41.369Z,11.27
2023-04-18T01:36:08.124Z,10.40
2023-04-18T01:38:35.238Z,10.35
2023-04-18T01:41:02.516Z,10.27
2023-04-18T01:43:29.456Z,10.25
2023-04-18T01:45:56.528Z,9.68
2023-04-18T01:48:23.592Z,9.68
2023-04-18T01:50:50.492Z,9.55
2023-04-18T01:53:17.911Z,9.70
2023-04-18T01:55:44.565Z,10.82
2023-04-18T01:58:11.260Z,9.05
2023-04-18T02:00:38.085Z,9.57
2023-04-18T02:03:04.912Z,9.48
2023-04-18T02:05:31.735Z,9.15
2023-04-18T02:07:59.500Z,10.13
2023-04-18T02:10:26.136Z,9.65
2023-04-18T02:12:52.798Z,10.13
2023-04-18T02:15:19.661Z,9.63
2023-04-18T02:17:46.396Z,9.40
2023-04-18T02:20:13.428Z,9.73
2023-04-18T02:22:40.306Z,9.60
2023-04-18T02:25:07.495Z,9.77
2023-04-18T02:27:34.236Z,10.45
2023-04-18T02:30:00.911Z,10.90
2023-04-18T02:32:27.601Z,10.27
2023-04-18T02:34:54.354Z,10.55
2023-04-18T02:37:21.353Z,10.55
2023-04-18T02:39:48.062Z,9.93
2023-04-18T02:42:14.843Z,9.45
2023-04-18T02:44:41.497Z,14.15
2023-04-18T02:47:08.176Z,11.02
2023-04-18T02:49:34.824Z,10.35
2023-04-18T02:52:01.611Z,9.95
2023-04-18T02:54:28.277Z,11.02
2023-04-18T02:56:55.298Z,11.07
2023-04-18T02:59:21.922Z,12.23
2023-04-18T03:01:48.705Z,14.70
2023-04-18T03:04:15.948Z,12.27
2023-04-18T03:06:42.866Z,13.70
2023-04-18T03:09:09.547Z,12.13
2023-04-18T03:11:36.328Z,11.65
2023-04-18T03:14:03.515Z,11.57
2023-04-18T03:16:31.011Z,12.10
2023-04-18T03:18:58.173Z,11.18
2023-04-18T03:21:24.975Z,14.38
2023-04-18T03:23:53.136Z,11.25
2023-04-18T03:26:19.988Z,12.80
2023-04-18T03:28:46.637Z,12.93
2023-04-18T03:31:13.353Z,12.23
2023-04-18T03:33:42.268Z,11.98
2023-04-18T03:36:09.154Z,12.88
2023-04-18T03:38:35.849Z,13.32
2023-04-18T03:41:02.566Z,13.32
2023-04-18T03:43:29.675Z,12.85
2023-04-18T03:45:56.529Z,12.13
2023-04-18T03:48:23.646Z,13.07
2023-04-18T03:50:51.019Z,13.95
2023-04-18T03:53:18.149Z,12.52
2023-04-18T03:55:45.436Z,14.27
2023-04-18T03:58:13.299Z,12.95
2023-04-18T04:00:40.494Z,12.48
2023-04-18T04:03:07.805Z,13.13
2023-04-18T04:05:34.714Z,12.63
2023-04-18T04:08:01.783Z,12.43
2023-04-18T04:10:28.911Z,13.27
2023-04-18T04:12:56.052Z,12.80
2023-04-18T04:15:23.136Z,13.45
2023-04-18T04:17:51.188Z,13.35
2023-04-18T04:20:24.011Z,14.23
2023-04-18T04:22:55.438Z,13.93
2023-04-18T04:25:25.322Z,14.15
2023-04-18T04:27:53.609Z,13.77
2023-04-18T04:30:21.535Z,14.90
2023-04-18T04:32:48.227Z,14.37
2023-04-18T04:35:16.068Z,12.90
2023-04-18T04:37:44.072Z,14.80
2023-04-18T04:40:11.220Z,13.68
2023-04-18T04:42:40.971Z,14.85
2023-04-18T04:45:12.458Z,14.52
2023-04-18T04:47:39.168Z,14.35
2023-04-18T04:50:07.751Z,13.98
2023-04-18T04:52:34.488Z,14.13
2023-04-18T04:55:01.217Z,13.85
2023-04-18T04:57:27.942Z,14.23
2023-04-18T04:59:54.649Z,15.20
2023-04-18T05:02:23.308Z,13.70
2023-04-18T05:07:18.184Z,14.70
2023-04-18T05:09:44.946Z,13.70
2023-04-18T05:12:11.752Z,15.23
2023-04-18T05:14:38.482Z,15.00
2023-04-18T05:17:05.412Z,16.17
2023-04-18T05:19:32.080Z,15.25
2023-04-18T05:21:58.885Z,14.68
2023-04-18T05:24:25.681Z,14.15
2023-04-18T05:26:52.565Z,14.57
2023-04-18T05:29:19.422Z,14.45
2023-04-18T05:31:46.079Z,14.98
2023-04-18T05:34:12.984Z,15.93
2023-04-18T05:36:40.110Z,14.93
2023-04-18T05:39:07.113Z,14.18
2023-04-18T05:41:33.827Z,14.73
2023-04-18T05:44:05.303Z,16.98
2023-04-18T05:46:33.051Z,14.30
2023-04-18T05:48:59.845Z,14.02
2023-04-18T05:51:26.794Z,15.52
2023-04-18T05:53:53.427Z,14.55
2023-04-18T05:56:22.412Z,13.48
2023-04-18T05:58:51.241Z,14.45
2023-04-18T06:01:21.369Z,14.35
2023-04-18T06:03:50.503Z,13.80
2023-04-18T06:06:17.999Z,13.50
2023-04-18T06:08:45.133Z,12.88
2023-04-18T06:11:12.250Z,13.32
2023-04-18T06:13:39.396Z,13.43
2023-04-18T06:16:06.424Z,13.93
2023-04-18T06:18:34.264Z,13.52
2023-04-18T06:21:01.039Z,13.17
2023-04-18T06:23:28.127Z,12.43
2023-04-18T06:25:55.285Z,12.85
2023-04-18T06:28:22.521Z,14.02
2023-04-18T06:30:49.582Z,13.18
2023-04-18T06:33:16.843Z,12.35
2023-04-18T06:35:43.947Z,12.30
2023-04-18T06:38:14.037Z,12.82
2023-04-18T06:40:40.677Z,12.35
2023-04-18T06:43:07.607Z,12.20
2023-04-18T06:45:34.898Z,12.48
2023-04-18T06:48:03.819Z,13.35
2023-04-18T06:50:31.043Z,12.20
2023-04-18T06:52:57.739Z,13.48
2023-04-18T06:55:24.492Z,12.02
2023-04-18T06:57:51.282Z,13.40
2023-04-18T07:00:19.368Z,12.45
2023-04-18T07:02:46.620Z,12.25
2023-04-18T07:05:13.503Z,12.88
2023-04-18T07:07:40.312Z,13.00
2023-04-18T07:10:09.539Z,13.93
2023-04-18T07:12:36.350Z,12.80
2023-04-18T07:15:04.276Z,12.30
2023-04-18T07:17:31.376Z,14.30
2023-04-18T07:19:58.538Z,12.32
2023-04-18T07:22:25.460Z,12.07
2023-04-18T07:24:52.102Z,11.82
2023-04-18T07:27:18.958Z,12.75
2023-04-18T07:29:45.722Z,11.63
2023-04-18T07:32:12.521Z,11.60
2023-04-18T07:34:40.452Z,11.93
2023-04-18T07:37:07.262Z,10.98
2023-04-18T07:39:36.118Z,10.65
2023-04-18T07:42:06.380Z,10.18
2023-04-18T07:44:35.611Z,11.50
2023-04-18T07:47:02.741Z,10.18
2023-04-18T07:49:29.589Z,9.38
2023-04-18T07:51:56.428Z,9.80
2023-04-18T07:54:23.168Z,9.00
2023-04-18T07:56:49.826Z,8.93
2023-04-18T07:59:16.913Z,8.63
2023-04-18T08:01:43.679Z,8.90
2023-04-18T08:04:10.731Z,9.45
2023-04-18T08:06:37.621Z,9.60
2023-04-18T08:09:05.745Z,9.15
2023-04-18T08:11:33.472Z,9.40
2023-04-18T08:14:00.623Z,9.50
2023-04-18T08:16:28.484Z,9.63
2023-04-18T08:18:55.209Z,8.27
2023-04-18T08:21:21.944Z,8.40
2023-04-18T08:23:48.753Z,8.68
2023-04-18T08:26:15.732Z,8.57
2023-04-18T08:28:44.142Z,8.98
2023-04-18T08:31:14.158Z,7.90
2023-04-18T08:33:41.447Z,8.43
2023-04-18T08:36:08.521Z,7.53
2023-04-18T08:38:35.474Z,8.23
2023-04-18T08:41:02.282Z,8.45
2023-04-18T08:43:31.099Z,7.60
2023-04-18T08:45:59.567Z,7.22
2023-04-18T08:48:28.301Z,7.53
2023-04-18T08:53:26.647Z,5.28
2023-04-18T08:55:57.915Z,6.43
2023-04-18T08:58:27.651Z,6.80
2023-04-18T09:00:55.000Z,6.15
2023-04-18T09:03:41.518Z,6.88
2023-04-18T09:06:10.140Z,7.53
2023-04-18T09:08:36.793Z,7.30
2023-04-18T09:11:29.530Z,7.03
2023-04-18T09:13:58.649Z,7.03
2023-04-18T09:16:27.668Z,7.53
2023-04-18T09:19:13.064Z,6.68
2023-04-18T09:21:42.208Z,7.25
2023-04-18T09:26:44.954Z,7.90
2023-04-18T09:29:12.081Z,7.88
2023-04-18T09:31:54.478Z,7.65
2023-04-18T09:34:25.067Z,8.02
2023-04-18T09:37:11.388Z,8.32
2023-04-18T09:39:43.515Z,8.00
2023-04-18T09:42:10.724Z,7.57
2023-04-18T09:44:38.720Z,7.40
2023-04-18T09:47:07.712Z,7.43
2023-04-18T09:49:35.202Z,7.05
2023-04-18T09:52:06.277Z,7.07
2023-04-18T09:54:35.625Z,6.93
2023-04-18T09:57:03.737Z,6.97
2023-04-18T09:59:47.654Z,6.57
2023-04-18T10:02:20.899Z,6.70
2023-04-18T10:04:48.292Z,6.95
2023-04-18T10:07:17.436Z,7.13
2023-04-18T10:09:47.980Z,7.03
2023-04-18T10:12:15.748Z,8.35
2023-04-18T10:14:43.806Z,7.47
2023-04-18T10:17:11.805Z,7.95
2023-04-18T10:19:44.222Z,9.40
2023-04-18T10:22:12.381Z,9.27
2023-04-18T10:24:49.645Z,7.63
2023-04-18T10:27:17.900Z,8.48
2023-04-18T10:29:48.767Z,8.48
2023-04-18T10:32:16.312Z,7.70
2023-04-18T10:34:43.649Z,8.25
2023-04-18T10:37:12.874Z,9.65
2023-04-18T10:40:00.284Z,7.53
2023-04-18T10:42:46.377Z,9.13
2023-04-18T10:45:19.878Z,8.07
2023-04-18T10:47:47.481Z,8.00
2023-04-18T10:50:14.796Z,7.65
2023-04-18T10:52:42.618Z,7.90
2023-04-18T10:55:18.068Z,8.07
2023-04-18T10:57:46.711Z,6.95
2023-04-18T11:00:23.503Z,7.07
2023-04-18T11:02:57.960Z,6.85
2023-04-18T11:05:29.367Z,7.18
2023-04-18T11:07:57.115Z,6.80
2023-04-18T11:10:26.622Z,7.00
2023-04-18T11:12:54.308Z,6.80
2023-04-18T11:15:23.220Z,9.48
2023-04-18T11:17:58.588Z,8.05
2023-04-18T11:20:25.709Z,6.95
2023-04-18T11:22:53.547Z,7.40
2023-04-18T11:25:26.913Z,7.73
2023-04-18T11:27:56.568Z,7.80
2023-04-18T11:30:24.465Z,8.52
2023-04-18T11:32:51.828Z,7.25
2023-04-18T11:35:18.896Z,8.68
2023-04-18T11:37:45.952Z,7.80
2023-04-18T11:40:14.783Z,8.63
2023-04-18T11:42:41.940Z,10.10
2023-04-18T11:45:13.497Z,10.07
2023-04-18T11:47:42.670Z,8.10
2023-04-18T11:50:12.136Z,8.82
2023-04-18T11:52:40.224Z,9.35
2023-04-18T11:55:18.619Z,8.95
2023-04-18T11:57:56.019Z,8.57
2023-04-18T12:00:39.575Z,9.07
2023-04-18T12:03:11.788Z,8.75
2023-04-18T12:05:41.010Z,9.73
2023-04-18T12:08:11.903Z,10.00
2023-04-18T12:10:39.450Z,9.07
2023-04-18T12:13:08.108Z,9.98
2023-04-18T12:18:03.138Z,10.05
2023-04-18T12:20:47.298Z,9.23
2023-04-18T12:23:33.709Z,10.48
2023-04-18T12:26:04.575Z,10.30
2023-04-18T12:28:32.246Z,11.45
2023-04-18T12:30:59.681Z,9.85
2023-04-18T12:33:26.943Z,10.55
2023-04-18T12:35:54.504Z,11.27
2023-04-18T12:38:22.338Z,12.52
2023-04-18T12:40:49.826Z,9.88
2023-04-18T12:43:17.421Z,10.52
2023-04-18T12:45:44.719Z,11.50
2023-04-18T12:48:13.400Z,11.55
2023-04-18T12:53:07.524Z,11.10
2023-04-18T12:55:34.685Z,11.95
2023-04-18T12:58:01.419Z,13.02
2023-04-18T13:00:32.503Z,11.65
2023-04-18T13:02:59.771Z,12.27
2023-04-18T13:05:31.606Z,12.85
2023-04-18T13:08:15.392Z,12.85
2023-04-18T13:10:43.641Z,11.95
2023-04-18T13:13:10.416Z,12.13
2023-04-18T13:15:37.177Z,12.50
2023-04-18T13:18:06.359Z,14.32
2023-04-18T13:20:34.067Z,13.23
2023-04-18T13:23:02.509Z,12.07
2023-04-18T13:25:32.045Z,12.00
2023-04-18T13:28:00.726Z,11.93
2023-04-18T13:30:27.716Z,13.52
2023-04-18T13:32:55.144Z,12.88
2023-04-18T13:35:23.065Z,13.75
2023-04-18T13:37:49.776Z,14.37
2023-04-18T13:40:16.553Z,13.57
2023-04-18T13:42:43.315Z,13.82
2023-04-18T13:45:10.545Z,13.45
2023-04-18T13:47:37.583Z,12.80
2023-04-18T13:50:05.562Z,13.45
2023-04-18T13:52:32.419Z,13.37
2023-04-18T13:54:59.162Z,12.98
2023-04-18T13:57:25.877Z,13.73
2023-04-18T13:59:52.637Z,13.48
2023-04-18T14:02:19.511Z,11.85
2023-04-18T14:04:46.601Z,12.00
2023-04-18T14:07:13.496Z,12.80
2023-04-18T14:09:40.160Z,12.65
2023-04-18T14:12:07.757Z,12.57
2023-04-18T14:14:34.945Z,12.77
2023-04-18T14:17:02.100Z,12.98
2023-04-18T14:19:29.655Z,12.13
2023-04-18T14:21:56.910Z,12.30
2023-04-18T14:24:24.154Z,13.57
2023-04-18T14:26:51.309Z,13.60
2023-04-18T14:29:18.401Z,12.75
2023-04-18T14:31:46.095Z,12.25
2023-04-18T14:34:14.423Z,12.97
2023-04-18T14:36:41.544Z,13.35
2023-04-18T14:39:08.773Z,14.93
2023-04-18T14:41:36.059Z,12.32
2023-04-18T14:44:04.203Z,12.20
2023-04-18T14:46:32.436Z,13.07
2023-04-18T14:48:59.703Z,13.27
2023-04-18T14:51:27.618Z,11.90
2023-04-18T14:53:55.555Z,12.98
2023-04-18T14:56:24.228Z,12.38
2023-04-18T14:58:51.429Z,12.48
2023-04-18T15:01:18.687Z,12.38
2023-04-18T15:03:46.440Z,12.32
2023-04-18T15:06:13.810Z,12.48
2023-04-18T15:08:41.143Z,12.27
2023-04-18T15:11:08.694Z,14.07
2023-04-18T15:13:35.924Z,11.05
2023-04-18T15:16:06.022Z,10.90
2023-04-18T15:18:33.107Z,10.52
2023-04-18T15:21:00.820Z,11.45
2023-04-18T15:23:31.286Z,11.70
2023-04-18T15:25:59.357Z,11.30
2023-04-18T15:28:26.449Z,11.25
2023-04-18T15:30:53.609Z,10.73
2023-04-18T15:33:21.074Z,10.05
2023-04-18T15:35:49.466Z,10.80
2023-04-18T15:38:16.646Z,10.38
2023-04-18T15:40:43.772Z,10.23
2023-04-18T15:43:10.897Z,9.48
2023-04-18T15:45:38.047Z,9.75
2023-04-18T15:48:05.398Z,11.00
2023-04-18T15:50:33.820Z,8.77
2023-04-18T15:53:01.506Z,10.27
2023-04-18T15:55:28.688Z,11.10
2023-04-18T15:57:55.770Z,10.55
2023-04-18T16:00:23.255Z,11.90
2023-04-18T16:02:50.866Z,9.95
2023-04-18T16:05:18.140Z,10.27
2023-04-18T16:07:45.314Z,10.90
2023-04-18T16:10:12.836Z,9.52
2023-04-18T16:12:40.252Z,10.37
2023-04-18T16:15:09.131Z,11.25
2023-04-18T16:17:36.673Z,10.05
2023-04-18T16:20:03.904Z,9.07
2023-04-18T16:22:30.765Z,10.90
2023-04-18T16:24:57.457Z,9.95
2023-04-18T16:27:24.213Z,9.73
2023-04-18T16:29:50.945Z,9.90
2023-04-18T16:32:17.707Z,9.90
2023-04-18T16:34:44.366Z,9.30
2023-04-18T16:37:12.242Z,12.30
2023-04-18T16:39:39.059Z,9.25
2023-04-18T16:42:05.849Z,8.80
2023-04-18T16:44:33.200Z,9.48
2023-04-18T16:47:00.081Z,9.60
2023-04-18T16:49:27.048Z,9.02
2023-04-18T16:51:53.854Z,9.30
2023-04-18T16:54:20.554Z,8.82
2023-04-18T16:56:47.482Z,8.70
2023-04-18T16:59:14.258Z,9.13
2023-04-18T17:01:40.952Z,8.85
2023-04-18T17:04:07.712Z,9.05
2023-04-18T17:06:34.480Z,9.80
2023-04-18T17:09:02.208Z,8.95
2023-04-18T17:11:30.052Z,9.02
2023-04-18T17:13:56.707Z,9.35
2023-04-18T17:16:23.467Z,9.18
2023-04-18T17:18:50.980Z,7.97
2023-04-18T17:21:18.101Z,8.65
2023-04-18T17:23:45.618Z,8.75
2023-04-18T17:26:12.786Z,8.85
2023-04-18T17:28:39.876Z,9.30
2023-04-18T17:31:07.492Z,7.97
2023-04-18T17:33:34.657Z,7.60
2023-04-18T17:36:02.563Z,8.43
2023-04-18T17:41:07.883Z,8.88
2023-04-18T17:43:35.064Z,9.03
2023-04-18T17:46:03.639Z,9.20
2023-04-18T17:48:31.289Z,8.50
2023-04-18T17:50:58.402Z,8.77
2023-04-18T17:53:25.573Z,8.85
2023-04-18T17:55:52.775Z,8.20
2023-04-18T17:58:20.578Z,9.13
2023-04-18T18:00:47.966Z,8.82
2023-04-18T18:03:15.829Z,9.27
2023-04-18T18:05:45.749Z,8.40
2023-04-18T18:08:13.005Z,8.50
2023-04-18T18:10:40.888Z,9.75
2023-04-18T18:13:08.365Z,9.48
2023-04-18T18:15:35.659Z,9.10
2023-04-18T18:18:02.786Z,9.30
2023-04-18T18:20:30.749Z,9.25
2023-04-18T18:23:01.697Z,9.93
2023-04-18T18:25:29.170Z,12.25
2023-04-18T18:27:56.308Z,14.27
2023-04-18T18:30:23.466Z,12.15
2023-04-18T18:32:51.227Z,11.15
2023-04-18T18:35:18.457Z,11.95
2023-04-18T18:37:45.574Z,11.73
2023-04-18T18:40:14.098Z,11.30
2023-04-18T18:47:39.553Z,10.50
2023-04-18T18:50:07.173Z,11.73
2023-04-18T18:52:34.461Z,11.45
2023-04-18T18:55:01.721Z,11.48
2023-04-18T18:57:28.931Z,11.90
2023-04-18T18:59:56.147Z,10.60
2023-04-18T19:02:23.439Z,9.13
2023-04-18T19:04:50.828Z,9.27
2023-04-18T19:07:18.030Z,9.02
2023-04-18T19:09:46.400Z,9.48
2023-04-18T19:12:14.528Z,9.05
2023-04-18T19:14:42.552Z,10.25
2023-04-18T19:17:10.872Z,9.00
2023-04-18T19:19:38.089Z,10.70
2023-04-18T19:22:06.544Z,9.38
2023-04-18T19:24:34.873Z,9.52
2023-04-18T19:27:02.905Z,9.45
2023-04-18T19:29:32.483Z,9.00
2023-04-18T19:31:59.968Z,10.13
2023-04-18T19:34:27.247Z,13.95
2023-04-18T19:36:54.402Z,7.88
2023-04-18T19:39:21.559Z,8.57
2023-04-18T19:41:48.797Z,9.40
2023-04-18T19:44:16.137Z,7.43
2023-04-18T19:46:43.283Z,9.18
2023-04-18T19:49:10.496Z,7.85
2023-04-18T19:51:38.737Z,6.72
2023-04-18T19:54:06.313Z,7.38
2023-04-18T19:56:33.539Z,6.82
2023-04-18T19:59:01.670Z,6.45
2023-04-18T20:01:28.816Z,6.10
2023-04-18T20:03:58.478Z,8.82
2023-04-18T20:06:29.292Z,6.55
2023-04-18T20:08:56.535Z,7.05
2023-04-18T20:11:23.892Z,7.05
2023-04-18T20:13:52.243Z,7.80
2023-04-18T20:16:19.386Z,7.10
2023-04-18T20:18:47.341Z,6.40
2023-04-18T20:21:14.702Z,7.07
2023-04-18T20:23:42.702Z,7.25
2023-04-18T20:26:09.833Z,6.43
2023-04-18T20:28:37.931Z,6.35
2023-04-18T20:31:05.364Z,6.55
2023-04-18T20:33:32.882Z,7.97
2023-04-18T20:36:00.254Z,6.47
2023-04-18T20:38:29.578Z,8.50
2023-04-18T20:40:58.691Z,7.05
2023-04-18T20:43:25.953Z,6.65
2023-04-18T20:45:54.403Z,6.55
2023-04-18T20:50:51.923Z,6.90
2023-04-18T20:53:25.070Z,6.35
2023-04-18T20:55:51.788Z,7.50
2023-04-18T20:58:18.560Z,6.80
2023-04-18T21:00:45.354Z,6.50
2023-04-18T21:03:16.223Z,6.78
2023-04-18T21:05:44.198Z,7.40
2023-04-18T21:08:11.392Z,6.30
2023-04-18T21:10:38.254Z,6.35
2023-04-18T21:13:05.060Z,9.75
2023-04-18T21:15:32.237Z,7.15
2023-04-18T21:17:58.981Z,7.13
2023-04-18T21:20:25.806Z,7.65
2023-04-18T21:22:52.518Z,6.88
2023-04-18T21:25:21.204Z,6.65
2023-04-18T21:27:49.357Z,6.80
2023-04-18T21:30:16.226Z,7.43
2023-04-18T21:32:42.983Z,6.95
2023-04-18T21:35:10.128Z,6.82
2023-04-18T21:37:37.543Z,7.18
2023-04-18T21:40:04.828Z,6.45
2023-04-18T21:42:31.614Z,7.50
2023-04-18T21:44:58.261Z,6.70
2023-04-18T21:47:25.897Z,6.50
2023-04-18T21:49:52.708Z,6.78
2023-04-18T21:52:19.371Z,7.15
2023-04-18T21:54:46.223Z,6.78
2023-04-18T21:57:12.968Z,7.70
2023-04-18T21:59:39.697Z,7.25
2023-04-18T22:02:06.527Z,7.60
2023-04-18T22:04:33.875Z,7.85
2023-04-18T22:07:00.856Z,6.85
2023-04-18T22:09:27.572Z,7.07
2023-04-18T22:11:57.053Z,7.25
2023-04-18T22:14:24.738Z,6.65
2023-04-18T22:16:51.950Z,6.95
2023-04-18T22:19:19.406Z,6.80
2023-04-18T22:21:46.422Z,6.57
2023-04-18T22:24:13.288Z,6.47
2023-04-18T22:26:40.764Z,6.93
2023-04-18T22:29:07.608Z,7.10
2023-04-18T22:31:34.312Z,7.22
2023-04-18T22:34:01.036Z,7.07
2023-04-18T22:36:27.898Z,7.28
2023-04-18T22:38:54.632Z,6.70
2023-04-18T22:41:21.291Z,6.78
2023-04-18T22:43:48.022Z,7.97
2023-04-18T22:46:14.730Z,6.97
2023-04-18T22:48:41.401Z,6.38
2023-04-18T22:51:08.099Z,6.90
2023-04-18T22:53:35.381Z,7.20
2023-04-18T22:56:02.515Z,7.25
2023-04-18T22:58:29.699Z,7.88
2023-04-18T23:00:57.071Z,7.38
2023-04-18T23:03:23.924Z,7.00
2023-04-18T23:05:50.851Z,7.22
2023-04-18T23:08:20.528Z,7.75
2023-04-18T23:10:47.184Z,7.18
2023-04-18T23:13:14.582Z,7.72
2023-04-18T23:15:41.318Z,8.23
2023-04-18T23:18:08.056Z,7.40
2023-04-18T23:20:34.908Z,7.60
2023-04-18T23:23:01.699Z,8.60
2023-04-18T23:25:28.787Z,7.80
2023-04-18T23:27:55.562Z,7.28
2023-04-18T23:30:26.196Z,7.50
2023-04-18T23:32:52.982Z,8.77
2023-04-18T23:35:19.652Z,7.68
2023-04-18T23:37:46.385Z,8.15
2023-04-18T23:40:13.134Z,8.38
2023-04-18T23:42:39.774Z,7.78
2023-04-18T23:45:07.019Z,7.90
2023-04-18T23:47:33.686Z,8.18
2023-04-18T23:50:00.374Z,8.52
2023-04-18T23:52:27.228Z,8.18
2023-04-18T23:54:53.951Z,7.72
2023-04-18T23:57:20.628Z,8.23
2023-04-18T23:59:47.244Z,8.02
